Time;durP1;ratioP1;P1;durP2;ratioP2;P2;SDS_P1;SDS_P2;PMS_P1;PMS_P2;Temp;Humidity;BMP_temperature;BMP_pressure;BME280_temperature;BME280_humidity;BME280_pressure;Samples;Min_cycle;Max_cycle;Signal;HPM_P1;HPM_P2
2022/12/10 00:01:14;;;;;;;;;19.75;15.75;;;;;18.75;30.26;100278.50;5067925;28;45326;-46
2022/12/10 00:03:39;;;;;;;;;21.75;17.25;;;;;18.72;30.25;100273.41;5068063;28;45331;-45
2022/12/10 00:06:07;;;;;;;;;20.75;14.25;;;;;18.72;30.57;100275.19;5068273;28;45335;-46
2022/12/10 00:08:34;;;;;;;;;25.50;22.75;;;;;18.70;30.26;100277.91;5062191;28;46721;-45
2022/12/10 00:11:02;;;;;;;;;21.25;21.25;;;;;18.68;30.58;100278.00;5060433;28;45320;-42
2022/12/10 00:13:27;;;;;;;;;19.75;17.50;;;;;18.67;30.52;100270.22;5060740;28;45321;-44
2022/12/10 00:15:52;;;;;;;;;21.00;18.00;;;;;18.64;30.65;100273.00;5060867;28;45669;-43
2022/12/10 00:18:17;;;;;;;;;19.00;17.75;;;;;18.64;30.43;100288.75;5067648;28;46959;-45
2022/12/10 00:20:43;;;;;;;;;22.67;16.33;;;;;18.64;30.77;100286.13;5073426;28;45303;-51
2022/12/10 00:23:08;;;;;;;;;21.75;21.50;;;;;18.65;30.58;100290.44;5060511;28;47958;-45
2022/12/10 00:25:34;;;;;;;;;16.00;14.25;;;;;18.64;30.91;100289.59;5059689;28;49198;-48
2022/12/10 00:27:59;;;;;;;;;23.75;18.25;;;;;18.65;30.97;100293.06;5060015;28;45593;-45
2022/12/10 00:30:24;;;;;;;;;22.25;17.50;;;;;18.64;30.94;100296.63;5059700;28;45378;-43
2022/12/10 00:32:50;;;;;;;;;20.50;19.00;;;;;18.65;30.87;100290.44;5041617;28;45261;-48
2022/12/10 00:35:15;;;;;;;;;19.50;16.50;;;;;18.63;30.45;100284.44;5059658;28;45605;-49
2022/12/10 00:37:41;;;;;;;;;22.75;18.25;;;;;18.63;30.96;100293.13;5059058;28;45643;-49
2022/12/10 00:40:07;;;;;;;;;16.50;15.25;;;;;18.64;30.69;100289.59;5059454;28;45368;-49
2022/12/10 00:42:32;;;;;;;;;14.75;14.75;;;;;18.64;30.84;100294.00;5063493;28;45157;-43
2022/12/10 00:44:57;;;;;;;;;16.67;15.67;;;;;18.63;30.70;100297.56;5060342;28;45205;-46
2022/12/10 00:47:23;;;;;;;;;18.00;17.67;;;;;18.62;31.09;100293.22;5057837;28;58142;-45
2022/12/10 00:49:48;;;;;;;;;18.25;16.75;;;;;18.62;30.70;100301.09;5058155;28;45396;-47
2022/12/10 00:52:14;;;;;;;;;21.75;17.75;;;;;18.60;30.65;100292.47;5058648;28;45378;-43
2022/12/10 00:54:39;;;;;;;;;22.75;18.00;;;;;18.62;30.84;100303.72;5040382;28;45559;-43
2022/12/10 00:57:04;;;;;;;;;18.50;18.25;;;;;18.61;30.96;100304.66;5071200;28;46628;-47
2022/12/10 00:59:29;;;;;;;;;20.33;17.33;;;;;18.61;31.08;100295.03;5073199;28;45414;-49
2022/12/10 01:01:55;;;;;;;;;19.00;18.00;;;;;18.64;30.89;100300.09;5059958;28;45322;-48
2022/12/10 01:04:20;;;;;;;;;19.75;16.75;;;;;18.66;31.06;100295.59;5058453;28;45292;-44
2022/12/10 01:06:47;;;;;;;;;20.00;15.50;;;;;18.69;31.23;100303.31;5059765;28;45442;-44
2022/12/10 01:09:16;;;;;;;;;18.00;16.25;;;;;18.73;31.06;100293.47;5061059;28;45422;-47
2022/12/10 01:11:43;;;;;;;;;14.50;13.75;;;;;18.76;30.90;100298.56;5048766;28;45325;-46
2022/12/10 01:14:10;;;;;;;;;17.50;16.50;;;;;18.79;31.19;100302.78;5053066;28;45670;-48
2022/12/10 01:16:36;;;;;;;;;18.00;16.00;;;;;18.82;31.14;100308.72;5074178;28;46353;-46
2022/12/10 01:19:02;;;;;;;;;16.00;15.00;;;;;18.88;31.08;100311.94;5067604;28;45400;-50
2022/12/10 01:21:29;;;;;;;;;15.00;15.00;;;;;18.92;30.83;100316.06;5060061;28;45529;-53
2022/12/10 01:23:56;;;;;;;;;14.00;13.50;;;;;18.93;31.16;100317.75;5059495;28;45281;-52
2022/12/10 01:26:24;;;;;;;;;15.25;15.25;;;;;18.98;31.16;100318.38;5057218;28;45313;-54
2022/12/10 01:28:50;;;;;;;;;15.25;15.00;;;;;19.01;31.21;100320.84;5058280;28;45330;-52
2022/12/10 01:31:22;;;;;;;;;14.00;12.75;;;;;19.03;31.32;100316.31;5059569;28;45391;-51
2022/12/10 01:33:47;;;;;;;;;17.75;17.00;;;;;19.06;31.02;100324.03;5061767;28;45345;-51
2022/12/10 01:36:15;;;;;;;;;17.75;16.50;;;;;19.08;31.00;100324.81;5051201;28;46753;-49
2022/12/10 01:38:42;;;;;;;;;16.25;16.00;;;;;19.11;30.93;100329.91;5065555;28;45454;-48
2022/12/10 01:41:14;;;;;;;;;22.00;15.00;;;;;19.12;31.00;100328.09;5058015;28;45295;-43
2022/12/10 01:44:00;;;;;;;;;15.33;15.33;;;;;19.15;30.54;100336.63;5018101;28;1250303;-43
2022/12/10 01:46:30;;;;;;;;;19.25;16.00;;;;;19.16;30.69;100333.09;5071195;28;45632;-46
2022/12/10 01:48:56;;;;;;;;;21.00;17.00;;;;;19.18;30.60;100343.53;5071955;28;45225;-48
2022/12/10 01:51:24;;;;;;;;;15.25;14.75;;;;;19.19;31.14;100347.81;5067801;28;45232;-47
2022/12/10 01:53:50;;;;;;;;;17.75;17.75;;;;;19.20;30.95;100346.88;5041235;28;45463;-49
2022/12/10 01:56:17;;;;;;;;;18.25;16.75;;;;;19.20;31.06;100351.31;5060960;28;46112;-47
2022/12/10 01:58:44;;;;;;;;;15.50;15.00;;;;;19.21;31.09;100361.72;5060513;28;45935;-44
2022/12/10 02:01:32;;;;;;;;;13.00;12.00;;;;;19.23;30.78;100364.28;5058932;28;45244;-46
2022/12/10 02:04:08;;;;;;;;;15.50;14.00;;;;;19.24;30.85;100361.53;5058464;28;45328;-49
2022/12/10 02:06:58;;;;;;;;;16.00;14.75;;;;;19.24;31.08;100358.91;5058225;28;46328;-45
2022/12/10 02:09:52;;;;;;;;;16.00;16.00;;;;;19.26;30.99;100356.19;5058085;28;45269;-49
2022/12/10 02:12:25;;;;;;;;;19.50;18.50;;;;;19.26;30.70;100361.44;5057873;28;45305;-49
2022/12/10 02:14:56;;;;;;;;;12.50;12.50;;;;;19.25;30.91;100355.38;5068273;28;45344;-45
2022/12/10 02:17:31;;;;;;;;;19.75;16.50;;;;;19.26;30.93;100364.94;5067281;28;46365;-48
2022/12/10 02:19:56;;;;;;;;;20.50;17.50;;;;;19.26;30.66;100371.97;5058470;28;45849;-46
2022/12/10 02:22:25;;;;;;;;;16.33;15.00;;;;;19.26;30.81;100364.94;5061222;28;45218;-53
2022/12/10 02:24:52;;;;;;;;;19.00;17.50;;;;;19.27;30.70;100371.03;5059988;28;45385;-51
2022/12/10 02:27:35;;;;;;;;;18.00;17.50;;;;;19.24;31.05;100365.94;5041784;28;47195;-47
2022/12/10 02:30:02;;;;;;;;;19.50;17.00;;;;;19.24;31.15;100379.94;5046289;28;45891;-48
2022/12/10 02:32:34;;;;;;;;;20.00;17.25;;;;;19.23;30.87;100374.78;5066757;28;45253;-45
2022/12/10 02:35:06;;;;;;;;;17.25;17.00;;;;;19.22;30.60;100373.09;5066308;28;45878;-45
2022/12/10 02:37:44;;;;;;;;;16.50;16.25;;;;;19.20;30.65;100375.78;5066023;28;46126;-51
2022/12/10 02:40:17;;;;;;;;;15.00;13.75;;;;;19.20;30.83;100378.41;5062819;28;45291;-47
2022/12/10 02:42:45;;;;;;;;;17.00;17.00;;;;;19.20;30.50;100380.22;5063404;28;45228;-51
2022/12/10 02:45:12;;;;;;;;;18.50;16.00;;;;;19.18;30.71;100377.69;5064058;28;45390;-46
2022/12/10 02:47:39;;;;;;;;;17.25;15.50;;;;;19.18;30.80;100379.44;5061442;28;46209;-48
2022/12/10 02:50:07;;;;;;;;;17.50;17.00;;;;;19.16;30.69;100384.78;5060191;28;45371;-52
2022/12/10 02:52:32;;;;;;;;;17.25;16.00;;;;;19.15;31.03;100377.84;5064548;28;45225;-47
2022/12/10 02:54:58;;;;;;;;;21.50;18.75;;;;;19.15;31.11;100389.19;5066134;28;45201;-48
2022/12/10 02:57:27;;;;;;;;;19.50;17.00;;;;;19.15;30.96;100377.84;5057934;28;45837;-52
2022/12/10 03:00:05;;;;;;;;;15.00;12.00;;;;;19.14;30.88;100378.78;5058654;28;45955;-46
2022/12/10 03:02:40;;;;;;;;;16.25;16.25;;;;;19.11;31.02;100377.19;5059450;28;45170;-47
2022/12/10 03:05:19;;;;;;;;;18.00;15.25;;;;;19.12;30.89;100378.00;5058218;28;45410;-44
2022/12/10 03:08:05;;;;;;;;;14.50;14.50;;;;;19.09;30.70;100373.78;5039707;28;48165;-47
2022/12/10 03:10:37;;;;;;;;;14.25;13.25;;;;;19.09;31.17;100376.41;5059918;28;45362;-45
2022/12/10 03:13:08;;;;;;;;;15.00;15.00;;;;;19.08;30.92;100374.72;5066572;28;45274;-53
2022/12/10 03:15:37;;;;;;;;;18.50;15.25;;;;;19.07;30.93;100370.38;5078471;28;45432;-46
2022/12/10 03:18:04;;;;;;;;;20.25;15.00;;;;;19.05;31.16;100369.63;5070355;28;46658;-45
2022/12/10 03:20:32;;;;;;;;;15.75;15.50;;;;;19.04;31.00;100364.47;5057759;28;45849;-51
2022/12/10 03:22:59;;;;;;;;;16.50;15.75;;;;;19.04;30.95;100375.81;5061702;28;45849;-46
2022/12/10 03:25:27;;;;;;;;;20.00;16.00;;;;;19.03;31.29;100382.00;5061541;28;45162;-45
2022/12/10 03:27:56;;;;;;;;;14.25;14.25;;;;;19.03;31.19;100386.41;5075164;28;46664;-49
2022/12/10 03:30:23;;;;;;;;;14.00;14.00;;;;;19.01;31.20;100389.13;5053657;28;45866;-52
2022/12/10 03:32:49;;;;;;;;;13.25;13.25;;;;;19.00;31.07;100384.81;5058673;28;45359;-47
2022/12/10 03:35:16;;;;;;;;;14.25;14.25;;;;;19.01;31.29;100383.88;5058535;28;45428;-48
2022/12/10 03:37:43;;;;;;;;;16.50;12.75;;;;;19.00;31.11;100390.06;5061287;28;46493;-48
2022/12/10 03:40:11;;;;;;;;;17.25;15.25;;;;;18.98;31.12;100397.19;5060754;28;45209;-54
2022/12/10 03:42:37;;;;;;;;;17.50;15.25;;;;;18.97;30.99;100392.84;5072760;28;44819;-50
2022/12/10 03:45:04;;;;;;;;;15.75;14.75;;;;;18.95;31.15;100386.84;5066217;28;45312;-43
2022/12/10 03:47:29;;;;;;;;;16.25;14.50;;;;;18.95;31.26;100407.84;5057896;28;46445;-47
2022/12/10 03:49:55;;;;;;;;;17.00;14.75;;;;;18.94;31.17;100400.88;5058187;28;45281;-47
2022/12/10 03:52:20;;;;;;;;;14.00;14.00;;;;;18.93;30.97;100404.41;5069947;28;45326;-50
2022/12/10 03:54:46;;;;;;;;;11.25;10.00;;;;;18.92;31.06;100398.34;5066986;28;45340;-49
2022/12/10 03:57:11;;;;;;;;;14.75;14.25;;;;;18.93;31.59;100392.19;5072312;28;46458;-48
2022/12/10 03:59:37;;;;;;;;;16.00;12.67;;;;;18.95;31.40;100402.59;5079077;28;46710;-47
2022/12/10 04:02:03;;;;;;;;;15.75;14.00;;;;;18.97;31.42;100411.25;5080423;28;44810;-51
2022/12/10 04:04:28;;;;;;;;;14.00;13.25;;;;;18.99;31.57;100409.38;5059914;28;45238;-46
2022/12/10 04:06:53;;;;;;;;;18.00;15.25;;;;;19.00;31.13;100404.03;5063736;28;45520;-45
2022/12/10 04:09:19;;;;;;;;;16.00;15.33;;;;;19.05;30.98;100405.56;5061969;28;51069;-49
2022/12/10 04:11:44;;;;;;;;;13.25;12.50;;;;;19.07;31.32;100407.16;5071803;28;45498;-44
2022/12/10 04:16:55;;;;;;;;;12.00;12.00;;;;;19.13;31.33;100411.22;5059970;28;45685;-45
2022/12/10 04:19:21;;;;;;;;;15.25;14.25;;;;;19.16;31.01;100406.63;5059956;28;45316;-44
2022/12/10 04:27:22;;;;;;;;;9.50;7.25;;;;;19.25;30.86;100410.53;5062331;28;45679;-45
2022/12/10 04:29:49;;;;;;;;;15.00;14.25;;;;;19.25;31.18;100402.66;5059443;28;45252;-47
2022/12/10 04:32:14;;;;;;;;;14.50;14.50;;;;;19.29;31.01;100411.22;5059780;28;45399;-46
2022/12/10 04:34:40;;;;;;;;;14.50;13.75;;;;;19.31;31.42;100409.34;5059966;28;45582;-48
2022/12/10 04:37:06;;;;;;;;;13.75;12.75;;;;;19.32;30.64;100411.03;5059572;28;46987;-44
2022/12/10 04:39:31;;;;;;;;;11.00;9.50;;;;;19.34;30.90;100409.19;5059615;28;45395;-45
2022/12/10 04:41:58;;;;;;;;;15.00;12.50;;;;;19.35;30.69;100413.47;5059885;28;45398;-46
2022/12/10 04:44:24;;;;;;;;;10.25;10.00;;;;;19.35;31.01;100421.34;5062530;28;45308;-49
2022/12/10 04:46:49;;;;;;;;;12.50;11.50;;;;;19.37;30.98;100424.75;5071196;28;47303;-48
2022/12/10 04:49:16;;;;;;;;;11.75;11.25;;;;;19.38;30.71;100423.81;5069886;28;45227;-46
2022/12/10 04:51:41;;;;;;;;;13.25;12.25;;;;;19.40;31.17;100423.75;5066744;28;45245;-52
2022/12/10 04:54:08;;;;;;;;;13.25;11.75;;;;;19.40;31.05;100424.59;5060572;28;45487;-50
2022/12/10 04:56:34;;;;;;;;;13.25;12.50;;;;;19.41;30.78;100421.03;5059776;28;45457;-48
2022/12/10 04:59:00;;;;;;;;;14.25;12.25;;;;;19.41;30.98;100420.16;5059374;28;45973;-47
2022/12/10 05:01:27;;;;;;;;;13.25;13.25;;;;;19.41;30.68;100426.28;5059614;28;45328;-48
2022/12/10 05:03:52;;;;;;;;;12.25;11.75;;;;;19.40;30.92;100424.59;5059825;28;45387;-53
2022/12/10 05:06:19;;;;;;;;;12.75;11.00;;;;;19.41;31.12;100423.66;5063472;28;46283;-49
2022/12/10 05:08:45;;;;;;;;;13.25;11.00;;;;;19.43;30.74;100428.81;5065385;28;45799;-47
2022/12/10 05:11:13;;;;;;;;;12.75;11.50;;;;;19.42;30.98;100430.59;5065403;28;45217;-45
2022/12/10 05:13:39;;;;;;;;;13.25;12.00;;;;;19.41;31.26;100430.66;5075724;28;45328;-45
2022/12/10 05:16:07;;;;;;;;;11.25;10.25;;;;;19.41;31.03;100428.03;5080262;28;45181;-49
2022/12/10 05:18:33;;;;;;;;;15.25;11.00;;;;;19.39;30.88;100417.63;5071641;28;45356;-53
2022/12/10 05:21:00;;;;;;;;;11.50;11.50;;;;;19.38;30.95;100423.81;5067006;28;45340;-51
2022/12/10 05:23:28;;;;;;;;;9.75;9.75;;;;;19.37;31.07;100418.66;5079232;28;45151;-49
2022/12/10 05:26:02;;;;;;;;;13.75;12.25;;;;;19.37;30.73;100418.66;5066208;28;45578;-48
2022/12/10 05:28:29;;;;;;;;;11.00;9.00;;;;;19.36;30.93;100428.31;5059923;28;45879;-47
2022/12/10 05:30:55;;;;;;;;;13.25;10.00;;;;;19.34;30.66;100424.94;5060716;28;45309;-49
2022/12/10 05:33:20;;;;;;;;;15.50;10.75;;;;;19.34;30.95;100438.09;5062681;28;45394;-46
2022/12/10 05:35:53;;;;;;;;;15.75;10.75;;;;;19.34;30.97;100438.09;5064677;28;46241;-43
2022/12/10 05:38:18;;;;;;;;;12.50;9.00;;;;;19.34;31.01;100439.84;5060683;28;45239;-43
2022/12/10 05:40:44;;;;;;;;;10.75;10.00;;;;;19.32;31.14;100439.94;5064227;28;45383;-46
2022/12/10 05:43:09;;;;;;;;;10.75;10.00;;;;;19.32;31.00;100445.19;5052685;28;45680;-48
2022/12/10 05:45:34;;;;;;;;;11.00;10.00;;;;;19.28;30.98;100446.28;5070088;28;58121;-47
2022/12/10 05:48:00;;;;;;;;;9.50;9.50;;;;;19.29;30.71;100458.50;5079152;28;47434;-48
2022/12/10 05:50:26;;;;;;;;;0.00;0.00;;;;;19.29;31.16;100461.97;5078264;28;44832;-47
2022/12/10 05:52:51;;;;;;;;;11.00;8.75;;;;;19.28;30.78;100464.69;5070922;28;45881;-50
2022/12/10 05:55:17;;;;;;;;;11.00;9.50;;;;;19.25;30.92;100464.84;5058576;28;46097;-48
2022/12/10 05:57:42;;;;;;;;;9.75;8.00;;;;;19.25;31.07;100467.47;5058393;28;45410;-46
2022/12/10 06:00:08;;;;;;;;;11.50;10.00;;;;;19.24;31.03;100464.00;5040145;28;45452;-46
2022/12/10 06:02:33;;;;;;;;;6.50;6.00;;;;;19.23;30.99;100464.09;5058469;28;45583;-45
2022/12/10 06:04:59;;;;;;;;;8.25;7.00;;;;;19.22;30.74;100467.66;5057514;28;46035;-45
2022/12/10 06:07:25;;;;;;;;;9.75;8.50;;;;;19.20;31.13;100459.03;5066773;28;45260;-45
2022/12/10 06:09:51;;;;;;;;;8.50;8.50;;;;;19.19;30.96;100473.09;5066492;28;45257;-44
2022/12/10 06:12:16;;;;;;;;;9.25;9.25;;;;;19.19;30.73;100478.34;5058865;28;45514;-45
2022/12/10 06:14:42;;;;;;;;;9.25;9.00;;;;;19.16;30.97;100479.38;5060884;28;45371;-47
2022/12/10 06:17:07;;;;;;;;;9.75;9.25;;;;;19.17;30.96;100475.81;5067541;28;45174;-47
2022/12/10 06:19:32;;;;;;;;;8.75;7.00;;;;;19.15;31.13;100472.41;5068258;28;45249;-49
2022/12/10 06:21:58;;;;;;;;;10.00;7.75;;;;;19.13;30.88;100474.28;5059173;28;45145;-49
2022/12/10 06:24:24;;;;;;;;;6.00;6.00;;;;;19.13;30.97;100480.34;5061111;28;47151;-47
2022/12/10 06:26:50;;;;;;;;;7.00;7.00;;;;;19.13;31.11;100484.78;5065716;28;45351;-48
2022/12/10 06:29:16;;;;;;;;;8.50;8.50;;;;;19.12;30.83;100498.84;5067232;28;45331;-44
2022/12/10 06:31:41;;;;;;;;;9.00;6.25;;;;;19.11;30.78;100492.75;5069876;28;45280;-48
2022/12/10 06:34:06;;;;;;;;;9.33;9.00;;;;;19.08;30.83;100497.31;5058197;28;46544;-48
2022/12/10 06:36:32;;;;;;;;;10.00;8.00;;;;;19.07;30.63;100496.47;5057444;28;45404;-44
2022/12/10 06:38:57;;;;;;;;;7.25;6.00;;;;;19.06;30.73;100494.78;5042355;28;45343;-50
2022/12/10 06:41:23;;;;;;;;;8.00;7.75;;;;;19.06;30.75;100499.19;5040269;28;45567;-46
2022/12/10 06:43:48;;;;;;;;;9.00;7.00;;;;;19.05;30.99;100508.84;5060806;28;46157;-43
2022/12/10 06:46:16;;;;;;;;;7.25;6.50;;;;;19.03;31.14;100504.59;5064730;28;45273;-49
2022/12/10 06:48:42;;;;;;;;;13.50;11.00;;;;;19.02;31.09;100514.25;5071864;28;45217;-43
2022/12/10 06:51:08;;;;;;;;;10.25;8.25;;;;;18.99;30.80;100511.81;5058583;28;45312;-50
2022/12/10 06:53:36;;;;;;;;;7.50;7.50;;;;;18.95;30.92;100505.00;5058178;28;46023;-45
2022/12/10 06:56:02;;;;;;;;;9.25;8.75;;;;;18.91;30.91;100511.31;5063580;28;45808;-47
2022/12/10 06:58:29;;;;;;;;;9.00;6.75;;;;;18.85;30.92;100517.78;5067833;28;45448;-44
2022/12/10 07:01:05;;;;;;;;;9.25;7.25;;;;;18.83;31.01;100514.38;5045634;28;45442;-44
2022/12/10 07:03:30;;;;;;;;;8.50;8.50;;;;;18.80;31.22;100522.41;5068855;28;45504;-45
2022/12/10 07:06:01;;;;;;;;;8.25;7.25;;;;;18.77;31.15;100520.78;5070200;28;45221;-44
2022/12/10 07:08:26;;;;;;;;;9.00;7.75;;;;;18.74;31.20;100526.19;5067458;28;45269;-44
2022/12/10 07:10:52;;;;;;;;;12.75;10.25;;;;;18.72;30.83;100535.94;5061744;28;45374;-46
2022/12/10 07:13:17;;;;;;;;;11.50;10.50;;;;;18.68;30.77;100532.63;5063316;28;46555;-44
2022/12/10 07:15:43;;;;;;;;;10.50;8.00;;;;;18.67;31.15;100538.81;5077924;28;44729;-47
2022/12/10 07:18:08;;;;;;;;;9.50;9.50;;;;;18.67;31.46;100535.34;5067879;28;44749;-44
2022/12/10 07:20:33;;;;;;;;;10.00;9.25;;;;;18.64;31.16;100541.56;5066753;28;45317;-48
2022/12/10 07:22:59;;;;;;;;;8.75;8.25;;;;;18.63;31.24;100541.66;5067694;28;45280;-42
2022/12/10 07:25:27;;;;;;;;;8.50;7.75;;;;;18.60;31.30;100547.06;5080102;28;45209;-46
2022/12/10 07:27:52;;;;;;;;;14.00;8.00;;;;;18.60;31.26;100557.56;5077908;28;44674;-51
2022/12/10 07:30:18;;;;;;;;;10.25;9.00;;;;;18.54;30.94;100549.09;5076205;28;47814;-56
2022/12/10 07:32:43;;;;;;;;;9.00;8.25;;;;;18.53;31.13;100552.66;5068615;28;45321;-45
2022/12/10 07:35:08;;;;;;;;;13.00;8.25;;;;;18.51;30.90;100543.16;5057162;28;45424;-47
2022/12/10 07:37:34;;;;;;;;;12.75;8.25;;;;;18.50;30.97;100555.41;5056987;28;45502;-48
2022/12/10 07:39:59;;;;;;;;;8.50;8.50;;;;;18.48;31.11;100549.38;5061633;28;44911;-51
2022/12/10 07:42:24;;;;;;;;;8.00;8.00;;;;;18.47;31.04;100549.47;5057859;28;58746;-51
2022/12/10 07:44:50;;;;;;;;;8.75;7.00;;;;;18.45;30.89;100564.44;5044574;28;45430;-51
2022/12/10 07:47:16;;;;;;;;;11.50;10.25;;;;;18.43;31.21;100556.66;5061910;28;45426;-48
2022/12/10 07:49:41;;;;;;;;;7.25;6.50;;;;;18.42;31.24;100561.97;5062781;28;45576;-47
2022/12/10 07:52:08;;;;;;;;;12.00;10.00;;;;;18.40;30.85;100564.69;5077203;28;46048;-47
2022/12/10 07:54:33;;;;;;;;;9.25;6.50;;;;;18.38;31.02;100567.41;5081278;28;45799;-46
2022/12/10 07:56:58;;;;;;;;;12.50;9.50;;;;;18.37;31.11;100572.69;5064633;28;45421;-45
2022/12/10 07:59:24;;;;;;;;;10.25;8.75;;;;;18.35;30.88;100574.59;5061781;28;45265;-44
2022/12/10 08:01:49;;;;;;;;;10.67;8.00;;;;;18.33;31.10;100566.75;5062349;28;51875;-44
2022/12/10 08:04:14;;;;;;;;;9.00;6.50;;;;;18.34;30.83;100575.50;5080026;28;45225;-48
2022/12/10 08:06:40;;;;;;;;;10.25;7.75;;;;;18.31;30.92;100580.91;5078947;28;45244;-43
2022/12/10 08:09:06;;;;;;;;;11.00;10.25;;;;;18.31;31.12;100573.03;5067730;28;45329;-44
2022/12/10 08:11:32;;;;;;;;;6.50;5.75;;;;;18.29;31.09;100575.72;5065000;28;46647;-47
2022/12/10 08:13:58;;;;;;;;;8.25;8.25;;;;;18.29;31.13;100580.13;5061301;28;45244;-45
2022/12/10 08:16:26;;;;;;;;;10.75;9.00;;;;;18.29;31.03;100582.75;5060921;28;45272;-46
2022/12/10 08:18:52;;;;;;;;;8.25;7.00;;;;;18.28;31.04;100588.91;5069434;28;45611;-44
2022/12/10 08:21:20;;;;;;;;;11.25;7.00;;;;;18.27;30.76;100601.19;5071161;28;45406;-45
2022/12/10 08:23:46;;;;;;;;;9.50;8.00;;;;;18.26;30.97;100596.88;5067187;28;45204;-50
2022/12/10 08:26:16;;;;;;;;;7.00;7.00;;;;;18.26;30.90;100604.75;5059492;28;45249;-47
2022/12/10 08:28:42;;;;;;;;;10.75;9.50;;;;;18.24;30.85;100607.41;5060662;28;45466;-44
2022/12/10 08:31:10;;;;;;;;;10.25;10.25;;;;;18.22;31.01;100604.03;5041400;28;47559;-45
2022/12/10 08:33:37;;;;;;;;;7.75;7.75;;;;;18.22;30.80;100614.53;5061386;28;45367;-45
